createdAt,value
2022-09-27T00:05:24.232Z,84.57
2022-09-27T00:27:07.394Z,83.94
2022-09-27T00:48:58.790Z,83.21
2022-09-27T01:10:56.426Z,82.27
2022-09-27T01:32:50.381Z,82.86
2022-09-27T01:54:39.144Z,83.00
2022-09-27T02:16:51.968Z,82.83
2022-09-27T02:38:41.401Z,82.56
2022-09-27T03:00:30.163Z,82.17
2022-09-27T03:22:37.234Z,81.84
2022-09-27T03:44:20.824Z,82.27
2022-09-27T04:06:04.894Z,82.09
2022-09-27T04:27:54.764Z,82.15
2022-09-27T04:49:38.030Z,81.70
2022-09-27T05:11:22.691Z,81.99
2022-09-27T05:33:24.919Z,81.93
2022-09-27T05:55:31.137Z,81.97
2022-09-27T06:17:14.557Z,81.87
2022-09-27T06:39:01.517Z,81.42
2022-09-27T07:01:08.136Z,81.01
2022-09-27T07:23:12.456Z,81.40
2022-09-27T07:44:56.405Z,81.46
2022-09-27T08:07:05.745Z,81.26
2022-09-27T08:28:49.714Z,81.27
2022-09-27T08:50:41.030Z,80.70
2022-09-27T09:12:48.163Z,80.24
2022-09-27T09:34:42.008Z,80.46
2022-09-27T09:56:29.629Z,79.70
2022-09-27T10:18:19.067Z,79.06
2022-09-27T10:40:16.323Z,79.31
2022-09-27T11:02:00.589Z,78.54
2022-09-27T11:24:09.451Z,79.35
2022-09-27T11:46:18.036Z,79.30
2022-09-27T12:08:18.968Z,77.51
2022-09-27T12:30:03.784Z,74.57
2022-09-27T12:51:51.954Z,76.11
2022-09-27T13:13:38.964Z,77.94
2022-09-27T13:35:24.075Z,78.39
2022-09-27T13:57:41.532Z,78.56
2022-09-27T14:19:29.573Z,77.36
2022-09-27T14:41:17.116Z,77.93
2022-09-27T15:03:05.587Z,78.51
2022-09-27T15:24:51.245Z,79.26
2022-09-27T15:46:41.475Z,79.75
2022-09-27T16:08:28.720Z,79.81
2022-09-27T16:30:16.416Z,78.18
2022-09-27T16:51:59.969Z,71.21
2022-09-27T17:13:44.454Z,74.30
2022-09-27T17:35:28.926Z,78.00
2022-09-27T17:57:12.976Z,79.54
2022-09-27T18:18:57.810Z,80.48
2022-09-27T18:40:55.714Z,80.45
2022-09-27T19:02:40.752Z,80.39
2022-09-27T19:24:24.014Z,81.56
2022-09-27T19:46:11.043Z,82.43
2022-09-27T20:07:54.164Z,82.55
2022-09-27T20:29:37.170Z,82.87
2022-09-27T20:51:21.484Z,82.94
2022-09-27T21:13:04.747Z,82.48
2022-09-27T21:34:47.786Z,82.69
2022-09-27T21:56:32.873Z,82.42
2022-09-27T22:18:16.044Z,80.78
2022-09-27T22:39:59.384Z,80.17
2022-09-27T23:01:42.376Z,80.18
2022-09-27T23:23:25.476Z,80.01
2022-09-27T23:45:10.938Z,79.76
